TimeCST,TemperatureF,Dew PointF,Humidity,Sea Level PressureIn,VisibilityMPH,Wind Direction,Wind SpeedMPH,Gust SpeedMPH,PrecipitationIn,Events,Conditions,WindDirDegrees,DateUTC
12:56 AM,35.1,27.0,72,30.32,10.0,ENE,8.1,-,N/A,,Clear,60,2012-12-31 06:56:00
1:56 AM,35.1,27.0,72,30.32,10.0,NE,6.9,-,N/A,,Clear,50,2012-12-31 07:56:00
2:56 AM,34.0,27.0,75,30.30,10.0,ENE,8.1,-,N/A,,Clear,60,2012-12-31 08:56:00
3:56 AM,35.1,28.0,76,30.29,10.0,ENE,9.2,-,N/A,,Clear,70,2012-12-31 09:56:00
4:56 AM,36.0,28.0,73,30.31,10.0,NE,5.8,-,N/A,,Clear,40,2012-12-31 10:56:00
6:56 AM,36.0,28.9,76,30.30,10.0,ENE,5.8,-,N/A,,Partly Cloudy,70,2012-12-31 12:56:00
7:18 AM,37.4,30.2,75,30.31,10.0,East,6.9,-,N/A,,Mostly Cloudy,80,2012-12-31 13:18:00
7:26 AM,39.2,30.2,70,30.32,10.0,ENE,6.9,-,N/A,,Scattered Clouds,70,2012-12-31 13:26:00
7:56 AM,42.1,33.1,70,30.30,10.0,NE,5.8,-,N/A,,Partly Cloudy,50,2012-12-31 13:56:00
8:56 AM,46.0,36.0,68,30.32,10.0,NE,6.9,-,N/A,,Overcast,50,2012-12-31 14:56:00
9:43 AM,48.2,37.4,66,30.35,10.0,ENE,6.9,-,N/A,,Overcast,60,2012-12-31 15:43:00
9:56 AM,48.0,37.9,68,30.32,10.0,ENE,5.8,-,N/A,,Overcast,60,2012-12-31 15:56:00
10:10 AM,48.2,39.2,71,30.35,10.0,NE,5.8,-,N/A,,Overcast,40,2012-12-31 16:10:00
10:56 AM,52.0,41.0,66,30.31,10.0,NNE,4.6,-,N/A,,Overcast,30,2012-12-31 16:56:00
11:27 AM,53.6,42.8,67,30.32,10.0,NNE,5.8,-,N/A,,Overcast,30,2012-12-31 17:27:00
11:56 AM,55.0,44.1,67,30.27,10.0,NE,5.8,-,N/A,,Overcast,50,2012-12-31 17:56:00
12:25 PM,57.2,44.6,63,30.28,10.0,ENE,3.5,-,N/A,,Overcast,70,2012-12-31 18:25:00
12:56 PM,57.9,46.9,67,30.22,10.0,ESE,5.8,-,N/A,,Overcast,120,2012-12-31 18:56:00
1:17 PM,57.2,46.4,67,30.24,10.0,East,3.5,-,N/A,,Overcast,100,2012-12-31 19:17:00
1:56 PM,59.0,46.9,64,30.19,10.0,East,4.6,-,N/A,,Overcast,80,2012-12-31 19:56:00
2:56 PM,60.1,48.0,64,30.18,10.0,ENE,6.9,-,N/A,,Overcast,70,2012-12-31 20:56:00
3:56 PM,59.0,48.9,69,30.18,10.0,NE,3.5,-,N/A,,Overcast,50,2012-12-31 21:56:00
4:56 PM,57.9,48.9,72,30.17,10.0,NE,3.5,-,N/A,,Overcast,50,2012-12-31 22:56:00
5:56 PM,57.0,48.9,74,30.18,10.0,NE,5.8,-,N/A,,Overcast,40,2012-12-31 23:56:00
6:21 PM,57.2,48.2,72,30.22,10.0,NE,5.8,-,N/A,,Overcast,40,2013-01-01 00:21:00
6:31 PM,55.4,48.2,77,30.22,10.0,NNE,5.8,-,N/A,,Overcast,30,2013-01-01 00:31:00
6:45 PM,55.4,48.2,77,30.22,10.0,ENE,6.9,-,N/A,,Overcast,70,2013-01-01 00:45:00
6:56 PM,54.0,48.0,80,30.17,10.0,East,8.1,-,N/A,,Mostly Cloudy,80,2013-01-01 00:56:00
7:56 PM,54.0,48.0,80,30.17,10.0,East,5.8,-,N/A,,Scattered Clouds,90,2013-01-01 01:56:00
8:56 PM,54.0,48.9,83,30.15,10.0,East,6.9,-,N/A,,Scattered Clouds,100,2013-01-01 02:56:00
9:56 PM,53.1,48.9,86,30.13,10.0,SE,5.8,-,N/A,,Clear,130,2013-01-01 03:56:00
10:56 PM,54.0,51.1,90,30.10,10.0,SE,6.9,-,N/A,,Partly Cloudy,140,2013-01-01 04:56:00
11:56 PM,54.0,52.0,93,30.09,10.0,ESE,4.6,-,N/A,,Overcast,120,2013-01-01 05:56:00